Nearby METAR Reports

 

KMTN - Baltimore/Martin, Maryland, USA
Distance from station: SSE 8mi, 13km
Updated: Mon, 22-Sep-2014 1:48am EDT
Clear
Clear
 Wind from W
Wind: W 10 mph , 17 km/h
Temperature: 72°F , 22°C
Dew Point: 52°F , 11°C
Humidity: 50%
Barometer: 29.77 inHg , 1008.1 hPa
Clouds: Clear
Visibility: 10 miles , 16 km
2014/09/22 05:48 KMTN 220548Z AUTO 26009KT 10SM CLR 22/11 A2977 RMK AO2
KDMH - Baltimore/Dwntwn, Maryland, USA
Distance from station: SW 12mi, 19km
Updated: Mon, 22-Sep-2014 1:54am EDT

 
Temperature: 72°F , 22°C
Dew Point: 48°F , 9°C
Humidity: 44%
Barometer: 29.78 inHg , 1008.5 hPa
2014/09/22 05:54 KDMH 220554Z AUTO 22/09 A2978 RMK AO1 SLP084 T02220089 10256 20222 51030
 
KBWI - Balto/Wash Intl, Maryland, USA
Distance from station: SSW 20mi, 33km
Updated: Mon, 22-Sep-2014 1:54am EDT
Partly cloudy
Partly cloudy
 Wind from WNW
Wind: WNW 12 mph , 19 km/h
Temperature: 70°F , 21°C
Dew Point: 48°F , 9°C
Humidity: 46%
Barometer: 29.78 inHg , 1008.5 hPa
Clouds: Partly cloudy
Visibility: 10 miles , 16 km
Cloud details: Few Clouds 10000 ft
Partly cloudy 25000 ft
2014/09/22 05:54 KBWI 220554Z 30010KT 10SM FEW100 SCT250 21/09 A2978 RMK AO2 SLP082 T02060094 10244 20206 51030
KDMW - Carroll Cnty, Maryland, USA
Distance from station: WNW 30mi, 48km
Updated: Mon, 22-Sep-2014 1:45am EDT
Clear
Clear
 Wind from W
Wind: W 18 mph , 30 km/h, Gust: 23 mph , 37 km/h
Temperature: 66°F , 19°C
Dew Point: 52°F , 11°C
Humidity: 60%
Barometer: 29.79 inHg , 1008.8 hPa
Clouds: Clear
Visibility: 10 miles , 16 km
2014/09/22 05:45 KDMW 220545Z AUTO 28016G20KT 10SM CLR 19/11 A2979 RMK AO2
 
KNAK - Annapolis/Naval, Maryland, USA
Distance from station: S 30mi, 48km
Updated: Mon, 22-Sep-2014 1:54am EDT
Clear
Clear
 Wind from WNW
Wind: WNW 9 mph , 15 km/h
Temperature: 72°F , 22°C
Dew Point: 54°F , 12°C
Humidity: 53%
Barometer: 29.76 inHg , 1007.8 hPa
Clouds: Clear
Visibility: 10 miles , 16 km
2014/09/22 05:54 KNAK 220554Z AUTO 29008KT 10SM CLR 22/12 A2976 RMK AO2 SLP081 6//// T02220117 10233 20211 51026 $
KW29 - Stevensville, Maryland, USA
Distance from station: SSE 31mi, 50km
Updated: Mon, 22-Sep-2014 1:46am EDT

 Wind from WNW
Wind: WNW 12 mph , 19 km/h, Gust: 18 mph , 30 km/h
Temperature: 72°F , 22°C
Dew Point: 50°F , 10°C
Humidity: 47%
Barometer: 29.76 inHg , 1007.8 hPa
Visibility: 10 miles , 16 km
2014/09/22 05:46 KW29 220546Z AUTO 30010G16KT 10SM 22/10 A2976 RMK AO1
 
KCGS - College Park, Maryland, USA
Distance from station: SW 38mi, 61km
Updated: Mon, 22-Sep-2014 1:45am EDT
Clear
Clear
 Wind from WNW
Wind: WNW 6 mph , 9 km/h
Temperature: 72°F , 22°C
Dew Point: 46°F , 8°C
Humidity: 41%
Barometer: 29.79 inHg , 1008.8 hPa
Clouds: Clear
Visibility: 10 miles , 16 km
2014/09/22 05:45 KCGS 220545Z AUTO 29005KT 10SM CLR 22/08 A2979 RMK AO1
KGAI - Gaithersburg, Maryland, USA
Distance from station: WSW 40mi, 65km
Updated: Mon, 22-Sep-2014 1:55am EDT
Clear
Clear
 Wind from WNW
Wind: WNW 10 mph , 17 km/h
Temperature: 66°F , 19°C
Dew Point: 46°F , 8°C
Humidity: 49%
Barometer: 29.85 inHg , 1010.8 hPa
Clouds: Clear
Visibility: 10 miles , 16 km
2014/09/22 05:55 KGAI 220555Z 29009KT 10SM CLR 19/08 A2985 RMK AO1 10240 20190 52027
 
KTHV - York, Pennsylvania, USA
Distance from station: NNW 40mi, 65km
Updated: Mon, 22-Sep-2014 1:53am EDT
Clear
Clear
 Wind from W
Wind: W 3 mph , 6 km/h
Temperature: 64°F , 18°C
Dew Point: 48°F , 9°C
Humidity: 56%
Barometer: 29.78 inHg , 1008.5 hPa
Clouds: Clear
Visibility: 10 miles , 16 km
2014/09/22 05:53 KTHV 220553Z AUTO 26003KT 10SM CLR 18/09 A2978 RMK AO2 SLP083 60021 T01780094 10228 20172 53023
KFDK - Frederick, Maryland, USA
Distance from station: W 47mi, 75km
Updated: Mon, 22-Sep-2014 1:45am EDT
Clear
Clear
 Wind from W
Wind: W 13 mph , 20 km/h, Gust: 20 mph , 31 km/h
Temperature: 70°F , 21°C
Dew Point: 48°F , 9°C
Humidity: 46%
Barometer: 29.84 inHg , 1010.5 hPa
Clouds: Clear
Visibility: 10 miles , 16 km
2014/09/22 05:45 KFDK 220545Z AUTO 28011G17KT 10SM CLR 21/09 A2984 RMK AO2
 
KESN - Easton/Newnam, Maryland, USA
Distance from station: SSE 48mi, 78km
Updated: Mon, 22-Sep-2014 1:59am EDT
Partly cloudy
Partly cloudy
 Wind from NNW
Wind: NNW 13 mph , 20 km/h
Temperature: 75°F , 24°C
Dew Point: 57°F , 14°C
Humidity: 54%
Barometer: 29.80 inHg , 1009.1 hPa
Clouds: Partly cloudy
Visibility: 10 miles , 16 km
Cloud details: Partly cloudy 9000 ft
2014/09/22 05:59 KESN 220559Z AUTO 33011KT 10SM SCT090 24/14 A2980 RMK AO2 T02350135 10250 20229 402860167
KDCA - Washington/Natl, Washington D.c., USA
Distance from station: SW 49mi, 79km
Updated: Mon, 22-Sep-2014 1:52am EDT
Few Clouds
Few Clouds
 Wind from WNW
Wind: WNW 18 mph , 30 km/h, Gust: 28 mph , 44 km/h
Temperature: 73°F , 23°C
Dew Point: 46°F , 8°C
Humidity: 38%
Barometer: 29.80 inHg , 1009.1 hPa
Clouds: Few Clouds
Visibility: 10 miles , 16 km
Cloud details: Few Clouds 10000 ft
2014/09/22 05:52 KDCA 220552Z 30016G24KT 10SM FEW100 23/08 A2980 RMK AO2 SLP089 T02330078 10272 20233 51029 $
 
KLNS - Lancaster, Pennsylvania, USA
Distance from station: N 49mi, 79km
Updated: Mon, 22-Sep-2014 1:53am EDT
Few Clouds
Few Clouds
 Wind from W
Wind: W 8 mph , 13 km/h
Temperature: 63°F , 17°C
Dew Point: 57°F , 14°C
Humidity: 83%
Barometer: 29.75 inHg , 1007.5 hPa
Clouds: Few Clouds
Visibility: 10 miles , 16 km
Cloud details: Few Clouds 6000 ft
2014/09/22 05:53 KLNS 220553Z AUTO 28007KT 10SM FEW060 17/14 A2975 RMK AO2 SLP071 60008 T01670139 10233 20167 53019
KILG - Wilmington, Delaware, USA
Distance from station: ENE 50mi, 81km
Updated: Mon, 22-Sep-2014 1:51am EDT
Few Clouds
Few Clouds
 Wind from WNW
Wind: WNW 12 mph , 19 km/h
Temperature: 70°F , 21°C
Dew Point: 61°F , 16°C
Humidity: 73%
Barometer: 29.74 inHg , 1007.1 hPa
Clouds: Few Clouds
Visibility: 10 miles , 16 km
Cloud details: Few Clouds 12000 ft
2014/09/22 05:51 KILG 220551Z AUTO 29010KT 10SM FEW120 21/16 A2974 RMK AO2 SLP070 T02060156 10233 20200 53015 TSNO